• Join FlightAware (Why Join?)
  • Login
  • US Flag 
01:10PM EST


 

Airport Tracker/Info


-or-


 

Live Flight TrackerFlight Track Log ✈ PMS1669 ✈ 02-Jul-2014 ✈ KHYS - KICT

Flight Track Log - Related Links

Times and Time Zones

All times are in EDT time to prevent confusion due to time zone crossing. See the PMS1669 flight status page for this flight to view local times or setup timezone preferences in your user account.

Time Position Orientation Groundspeed Altitude Reporting Facility
EDT Latitude Longitude Course Direction KTS MPH feet Rate Location/Type
08:46PM 38.7292 -99.1328 130° Southeast 189 217 5,000  Level Kansas City Center
08:47PM 38.7011 -99.0892 129° Southeast 160 184 5,000  Level Kansas City Center
08:48PM 38.6794 -99.0394 119° Southeast 158 182 5,000  Level Kansas City Center
08:49PM 38.6581 -98.9821 129° Southeast  Level Estimated
08:49PM 38.6531 -98.9783 119° Southeast 158 182 5,000  Level Kansas City Center
08:50PM 38.6275 -98.9349 130° Southeast  Level FlightAware Approximate
08:50PM 38.6244 -98.9328 129° Southeast 160 184 5,000  Level Kansas City Center
08:51PM 38.5969 -98.8878 130° Southeast  Level FlightAware Approximate
08:51PM 38.5933 -98.8894 133° Southeast 161 185 5,000  Level Kansas City Center
08:52PM 38.5642 -98.8453 130° Southeast 161 185 5,000 49 Level Kansas City Center
08:53PM 38.5347 -98.8006 130° Southeast 162 186 5,100 49 Climbing Kansas City Center
08:54PM 38.5044 -98.7564 131° Southeast 162 186 5,100 -48 Level Kansas City Center
08:55PM 38.4767 -98.7097 127° Southeast 162 186 5,000 -48 Descending Kansas City Center
08:56PM 38.4456 -98.6519 124° Southeast 162 186 5,000  Level Kansas City Center
08:57PM 38.4189 -98.6044 126° Southeast 162 186 5,000 49 Level Kansas City Center
08:58PM 38.3886 -98.5606 131° Southeast 162 186 5,100  Climbing Kansas City Center
08:59PM 38.3547 -98.5206 137° Southeast 163 188 5,000 -48 Descending Kansas City Center
09:00PM 38.3222 -98.4792 135° Southeast 163 188 5,000  Level Kansas City Center
09:01PM 38.2933 -98.4331 129° Southeast 163 188 5,000  Level Kansas City Center
09:02PM 38.2681 -98.3839 123° Southeast 163 188 5,000  Level Kansas City Center
09:03PM 38.2333 -98.3278 128° Southeast 165 190 5,000  Level Kansas City Center
09:04PM 38.2164 -98.3069 136° Southeast 169 194 5,000  Level Kansas City Center
09:04PM 38.1992 -98.2861 136° Southeast 165 190 5,000  Level Kansas City Center
09:05PM 38.1792 -98.2672 143° Southeast 170 196 5,000 -94 Level Kansas City Center
09:05PM 38.1633 -98.2467 134° Southeast 168 193 4,900  Descending Kansas City Center
09:06PM 38.1461 -98.2267 138° Southeast 170 196 5,000 98 Climbing Kansas City Center
09:06PM 38.1294 -98.2056 135° Southeast 169 194 5,000  Level Kansas City Center
09:07PM 38.1083 -98.1817 138° Southeast 170 196 5,000  Level Kansas City Center
09:07PM 38.0950 -98.1650 135° Southeast 169 194 5,000  Level Kansas City Center
09:08PM 38.0711 -98.1394 140° Southeast 170 196 5,000  Level Kansas City Center
09:08PM 38.0606 -98.1244 132° Southeast 169 194 5,000 98 Level Kansas City Center
09:09PM 38.0358 -98.0994 141° Southeast 170 196 5,100 100 Climbing Kansas City Center
09:09PM 38.0261 -98.0831 127° Southeast 169 194 5,100 -100 Level Kansas City Center
09:10PM 38.0025 -98.0564 138° Southeast 170 196 5,000 -100 Descending Kansas City Center
09:10PM 37.9847 -98.0344 136° Southeast 169 194 5,000  Level Kansas City Center
09:11PM 37.9694 -98.0161 137° Southeast 170 196 5,000  Level Kansas City Center
09:11PM 37.9508 -97.9933 136° Southeast 169 194 5,000  Level Kansas City Center
09:12PM 37.9317 -97.9714 138° Southeast 170 196 5,000  Level Kansas City Center
09:12PM 37.9175 -97.9522 133° Southeast 169 194 5,000  Level Kansas City Center
09:13PM 37.8961 -97.9264 136° Southeast 170 196 5,000  Level Kansas City Center
09:13PM 37.8844 -97.9114 135° Southeast 169 194 5,000 -197 Level Kansas City Center
09:14PM 37.8606 -97.8839 138° Southeast 172 198 4,800 -290 Descending Kansas City Center
09:14PM 37.8425 -97.8622 137° Southeast 170 196 4,700 -387 Descending Kansas City Center
09:15PM 37.8250 -97.8414 137° Southeast 178 205 4,400 -381 Descending Kansas City Center
09:16PM 37.8092 -97.8156 128° Southeast 175 201 4,300 -222 Descending Kansas City Center
09:16PM 37.7958 -97.7983 134° Southeast 177 204 4,200 -295 Descending Kansas City Center
09:17PM 37.7769 -97.7700 130° Southeast 177 204 4,000 -393 Descending Kansas City Center
09:17PM 37.7639 -97.7500 130° Southeast 175 201 3,800 -295 Descending Kansas City Center
09:18PM 37.7458 -97.7219 129° Southeast 177 204 3,700 -203 Descending Kansas City Center
09:18PM 37.7322 -97.7044 135° Southeast 173 199 3,600 -295 Descending Kansas City Center
09:19PM 37.7153 -97.6769 128° Southeast 176 203 3,400 -300 Descending Kansas City Center
09:19PM 37.7047 -97.6586 126° Southeast 169 194 3,300 -188 Descending Kansas City Center
09:20PM 37.6894 -97.6289 123° Southeast 172 198 3,200 -197 Descending Kansas City Center
09:20PM 37.6792 -97.6094 124° Southeast 167 192 3,100 -200 Descending Kansas City Center
09:21PM 37.6592 -97.5692 122° Southeast 171 197 3,000 -95 Descending Kansas City Center
09:21PM 37.6533 -97.5606 131° Southeast 166 191 3,000 -286 Level Kansas City Center
09:22PM 37.6339 -97.5200 121° Southeast 171 197 2,700 -700 Descending Kansas City Center
09:22PM 37.6292 -97.5061 113° Southeast 168 193 2,300 -400 Descending Kansas City Center
09:23PM 37.6233 -97.4642 100° East 171 197 2,300 -393 Level Kansas City Center
09:23PM 37.6239 -97.4514 87° East 150 173 1,900 -762 Descending Kansas City Center
09:24PM 37.6492 -97.4386 22° Northeast 150 173 1,500 -511 Descending Kansas City Center
09:26PM 37.6499 -97.4331 127° Southeast  Level Estimated
09:33PM 37.6499 -97.4331 127° Southeast  Level Estimated